sensor_id;sensor_type;location;lat;lon;timestamp;pressure;altitude;pressure_sealevel;temperature;humidity
77153;BME280;66124;51.146;17.072;2023-07-13T00:00:46;99758.96;;;22.12;65.93
77153;BME280;66124;51.146;17.072;2023-07-13T00:03:35;99767.16;;;22.09;65.97
77153;BME280;66124;51.146;17.072;2023-07-13T00:06:05;99768.08;;;22.07;66.09
77153;BME280;66124;51.146;17.072;2023-07-13T00:08:35;99756.36;;;22.04;66.20
77153;BME280;66124;51.146;17.072;2023-07-13T00:11:05;99748.62;;;22.02;66.24
77153;BME280;66124;51.146;17.072;2023-07-13T00:13:34;99751.52;;;21.98;66.45
77153;BME280;66124;51.146;17.072;2023-07-13T00:16:04;99753.06;;;21.95;66.45
77153;BME280;66124;51.146;17.072;2023-07-13T00:18:34;99757.23;;;21.91;66.43
77153;BME280;66124;51.146;17.072;2023-07-13T00:21:03;99752.45;;;21.87;66.40
77153;BME280;66124;51.146;17.072;2023-07-13T00:23:34;99747.33;;;21.83;66.55
77153;BME280;66124;51.146;17.072;2023-07-13T00:26:04;99747.34;;;21.78;66.56
77153;BME280;66124;51.146;17.072;2023-07-13T00:28:34;99750.92;;;21.74;66.60
77153;BME280;66124;51.146;17.072;2023-07-13T00:31:04;99756.83;;;21.71;66.74
77153;BME280;66124;51.146;17.072;2023-07-13T00:33:33;99763.27;;;21.68;66.79
77153;BME280;66124;51.146;17.072;2023-07-13T00:36:03;99761.48;;;21.64;66.87
77153;BME280;66124;51.146;17.072;2023-07-13T00:38:33;99747.70;;;21.60;66.92
77153;BME280;66124;51.146;17.072;2023-07-13T00:41:02;99741.67;;;21.54;67.14
77153;BME280;66124;51.146;17.072;2023-07-13T00:43:32;99748.79;;;21.50;67.32
77153;BME280;66124;51.146;17.072;2023-07-13T00:46:12;99755.59;;;21.46;67.46
77153;BME280;66124;51.146;17.072;2023-07-13T00:48:40;99762.29;;;21.41;67.67
77153;BME280;66124;51.146;17.072;2023-07-13T00:59:42;99769.73;;;21.31;67.96
77153;BME280;66124;51.146;17.072;2023-07-13T01:02:13;99782.95;;;21.26;68.13
77153;BME280;66124;51.146;17.072;2023-07-13T01:04:43;99792.27;;;21.23;68.27
77153;BME280;66124;51.146;17.072;2023-07-13T01:07:13;99802.63;;;21.14;68.68
77153;BME280;66124;51.146;17.072;2023-07-13T01:09:43;99806.63;;;21.00;69.05
77153;BME280;66124;51.146;17.072;2023-07-13T01:12:13;99802.75;;;20.90;69.18
77153;BME280;66124;51.146;17.072;2023-07-13T01:14:42;99790.33;;;20.86;69.27
77153;BME280;66124;51.146;17.072;2023-07-13T01:17:12;99778.79;;;20.85;69.36
77153;BME280;66124;51.146;17.072;2023-07-13T01:19:44;99776.70;;;20.85;69.42
77153;BME280;66124;51.146;17.072;2023-07-13T01:22:16;99772.63;;;20.84;69.45
77153;BME280;66124;51.146;17.072;2023-07-13T01:24:47;99769.02;;;20.83;69.60
77153;BME280;66124;51.146;17.072;2023-07-13T01:27:22;99763.98;;;20.83;69.54
77153;BME280;66124;51.146;17.072;2023-07-13T01:29:53;99762.92;;;20.83;69.68
77153;BME280;66124;51.146;17.072;2023-07-13T01:32:25;99753.72;;;20.80;69.81
77153;BME280;66124;51.146;17.072;2023-07-13T01:34:55;99752.45;;;20.82;70.00
77153;BME280;66124;51.146;17.072;2023-07-13T01:37:25;99761.30;;;20.80;69.95
77153;BME280;66124;51.146;17.072;2023-07-13T01:39:55;99756.71;;;20.79;69.99
77153;BME280;66124;51.146;17.072;2023-07-13T01:42:24;99758.63;;;20.77;70.17
77153;BME280;66124;51.146;17.072;2023-07-13T01:45:12;99756.63;;;20.75;70.19
77153;BME280;66124;51.146;17.072;2023-07-13T01:47:41;99749.91;;;20.72;70.45
77153;BME280;66124;51.146;17.072;2023-07-13T01:50:11;99749.52;;;20.70;70.46
77153;BME280;66124;51.146;17.072;2023-07-13T01:52:41;99743.45;;;20.67;70.68
77153;BME280;66124;51.146;17.072;2023-07-13T01:55:10;99749.09;;;20.62;70.90
77153;BME280;66124;51.146;17.072;2023-07-13T01:57:40;99749.59;;;20.58;70.81
77153;BME280;66124;51.146;17.072;2023-07-13T02:00:12;99750.48;;;20.55;71.05
77153;BME280;66124;51.146;17.072;2023-07-13T02:02:42;99748.79;;;20.52;71.14
77153;BME280;66124;51.146;17.072;2023-07-13T02:05:12;99750.15;;;20.49;71.20
77153;BME280;66124;51.146;17.072;2023-07-13T02:07:42;99745.36;;;20.47;71.23
77153;BME280;66124;51.146;17.072;2023-07-13T02:10:10;99748.14;;;20.44;71.41
77153;BME280;66124;51.146;17.072;2023-07-13T02:12:39;99742.10;;;20.41;71.55
77153;BME280;66124;51.146;17.072;2023-07-13T02:16:03;99734.00;;;20.41;71.46
77153;BME280;66124;51.146;17.072;2023-07-13T02:18:32;99733.70;;;20.36;71.59
77153;BME280;66124;51.146;17.072;2023-07-13T02:21:01;99728.58;;;20.32;71.72
77153;BME280;66124;51.146;17.072;2023-07-13T02:23:31;99728.77;;;20.29;71.82
77153;BME280;66124;51.146;17.072;2023-07-13T02:26:02;99723.70;;;20.26;71.94
77153;BME280;66124;51.146;17.072;2023-07-13T02:28:31;99724.55;;;20.24;72.03
77153;BME280;66124;51.146;17.072;2023-07-13T02:31:08;99725.20;;;20.21;71.99
77153;BME280;66124;51.146;17.072;2023-07-13T02:33:38;99719.73;;;20.17;72.04
77153;BME280;66124;51.146;17.072;2023-07-13T02:36:08;99719.74;;;20.12;72.00
77153;BME280;66124;51.146;17.072;2023-07-13T02:38:38;99723.77;;;20.07;71.96
77153;BME280;66124;51.146;17.072;2023-07-13T02:41:08;99720.25;;;20.02;71.92
77153;BME280;66124;51.146;17.072;2023-07-13T02:43:38;99703.27;;;19.92;71.90
77153;BME280;66124;51.146;17.072;2023-07-13T02:46:07;99712.23;;;19.93;71.95
77153;BME280;66124;51.146;17.072;2023-07-13T02:48:38;99709.81;;;19.87;72.14
77153;BME280;66124;51.146;17.072;2023-07-13T02:51:08;99712.64;;;19.82;72.16
77153;BME280;66124;51.146;17.072;2023-07-13T02:53:37;99716.33;;;19.76;72.30
77153;BME280;66124;51.146;17.072;2023-07-13T02:56:07;99722.00;;;19.72;72.31
77153;BME280;66124;51.146;17.072;2023-07-13T02:58:37;99727.06;;;19.69;72.31
77153;BME280;66124;51.146;17.072;2023-07-13T03:01:09;99737.95;;;19.67;72.42
77153;BME280;66124;51.146;17.072;2023-07-13T03:03:39;99738.83;;;19.65;72.44
77153;BME280;66124;51.146;17.072;2023-07-13T03:06:09;99746.58;;;19.63;72.48
77153;BME280;66124;51.146;17.072;2023-07-13T03:08:39;99750.42;;;19.63;72.49
77153;BME280;66124;51.146;17.072;2023-07-13T03:11:10;99748.77;;;19.59;72.59
77153;BME280;66124;51.146;17.072;2023-07-13T03:13:38;99748.19;;;19.60;72.63
77153;BME280;66124;51.146;17.072;2023-07-13T03:16:08;99747.56;;;19.56;72.66
77153;BME280;66124;51.146;17.072;2023-07-13T03:18:38;99752.05;;;19.56;72.58
77153;BME280;66124;51.146;17.072;2023-07-13T03:21:08;99747.23;;;19.55;72.64
77153;BME280;66124;51.146;17.072;2023-07-13T03:23:37;99741.87;;;19.55;72.63
77153;BME280;66124;51.146;17.072;2023-07-13T03:26:09;99740.17;;;19.57;72.67
77153;BME280;66124;51.146;17.072;2023-07-13T03:28:38;99740.42;;;19.60;72.73
77153;BME280;66124;51.146;17.072;2023-07-13T03:39:37;99743.35;;;19.81;72.51
77153;BME280;66124;51.146;17.072;2023-07-13T03:42:08;99748.09;;;19.83;72.36
77153;BME280;66124;51.146;17.072;2023-07-13T03:44:38;99751.45;;;19.88;72.24
77153;BME280;66124;51.146;17.072;2023-07-13T03:47:08;99751.80;;;19.91;72.24
77153;BME280;66124;51.146;17.072;2023-07-13T03:49:37;99749.36;;;19.93;72.16
77153;BME280;66124;51.146;17.072;2023-07-13T03:52:07;99743.71;;;19.96;72.11
77153;BME280;66124;51.146;17.072;2023-07-13T03:54:37;99738.27;;;19.99;71.96
77153;BME280;66124;51.146;17.072;2023-07-13T03:57:08;99736.04;;;20.03;71.91
77153;BME280;66124;51.146;17.072;2023-07-13T03:59:37;99740.73;;;20.07;71.77
77153;BME280;66124;51.146;17.072;2023-07-13T04:02:07;99741.48;;;20.12;71.71
77153;BME280;66124;51.146;17.072;2023-07-13T04:04:37;99742.70;;;20.16;71.61
77153;BME280;66124;51.146;17.072;2023-07-13T04:07:06;99744.90;;;20.21;71.61
77153;BME280;66124;51.146;17.072;2023-07-13T04:09:36;99749.62;;;20.26;71.40
77153;BME280;66124;51.146;17.072;2023-07-13T04:12:07;99756.73;;;20.30;71.13
77153;BME280;66124;51.146;17.072;2023-07-13T04:14:36;99759.45;;;20.35;70.92
77153;BME280;66124;51.146;17.072;2023-07-13T04:17:06;99770.05;;;20.38;70.85
77153;BME280;66124;51.146;17.072;2023-07-13T04:19:36;99780.48;;;20.39;70.51
77153;BME280;66124;51.146;17.072;2023-07-13T04:22:06;99791.02;;;20.38;70.30
77153;BME280;66124;51.146;17.072;2023-07-13T04:24:35;99801.43;;;20.34;70.22
77153;BME280;66124;51.146;17.072;2023-07-13T04:27:06;99822.36;;;20.27;70.43
77153;BME280;66124;51.146;17.072;2023-07-13T04:29:35;99865.19;;;20.14;70.77
77153;BME280;66124;51.146;17.072;2023-07-13T04:32:06;99889.52;;;19.98;70.61
77153;BME280;66124;51.146;17.072;2023-07-13T04:34:35;99883.36;;;19.81;70.10
77153;BME280;66124;51.146;17.072;2023-07-13T04:37:06;99913.15;;;19.65;70.20
77153;BME280;66124;51.146;17.072;2023-07-13T04:39:35;99932.88;;;19.43;70.01
77153;BME280;66124;51.146;17.072;2023-07-13T04:42:05;99961.61;;;19.20;70.56
77153;BME280;66124;51.146;17.072;2023-07-13T04:44:35;99995.79;;;18.91;71.56
77153;BME280;66124;51.146;17.072;2023-07-13T04:47:05;100028.26;;;18.53;72.54
77153;BME280;66124;51.146;17.072;2023-07-13T04:49:33;100065.53;;;18.09;73.74
77153;BME280;66124;51.146;17.072;2023-07-13T04:52:01;100073.08;;;17.66;74.36
77153;BME280;66124;51.146;17.072;2023-07-13T04:58:53;100070.64;;;16.84;77.27
77153;BME280;66124;51.146;17.072;2023-07-13T05:01:22;100068.80;;;16.51;77.75
77153;BME280;66124;51.146;17.072;2023-07-13T05:03:51;100070.52;;;16.29;78.69
77153;BME280;66124;51.146;17.072;2023-07-13T05:06:21;100057.98;;;16.12;79.07
77153;BME280;66124;51.146;17.072;2023-07-13T05:08:50;100055.33;;;16.00;79.61
77153;BME280;66124;51.146;17.072;2023-07-13T05:11:21;100053.74;;;15.90;79.88
77153;BME280;66124;51.146;17.072;2023-07-13T05:13:50;100053.84;;;15.83;80.10
77153;BME280;66124;51.146;17.072;2023-07-13T05:16:20;100045.35;;;15.80;80.49
77153;BME280;66124;51.146;17.072;2023-07-13T05:18:49;100030.64;;;15.75;80.84
77153;BME280;66124;51.146;17.072;2023-07-13T05:21:19;100019.45;;;15.73;80.78
77153;BME280;66124;51.146;17.072;2023-07-13T05:23:49;100021.11;;;15.73;80.95
77153;BME280;66124;51.146;17.072;2023-07-13T05:26:18;100022.73;;;15.76;81.16
77153;BME280;66124;51.146;17.072;2023-07-13T05:28:48;100023.30;;;15.80;81.24
77153;BME280;66124;51.146;17.072;2023-07-13T05:31:17;100017.64;;;15.84;81.45
77153;BME280;66124;51.146;17.072;2023-07-13T05:33:47;99997.10;;;15.87;81.41
77153;BME280;66124;51.146;17.072;2023-07-13T05:36:16;99962.02;;;15.95;81.88
77153;BME280;66124;51.146;17.072;2023-07-13T05:38:45;99933.14;;;16.04;81.85
77153;BME280;66124;51.146;17.072;2023-07-13T05:41:15;99909.05;;;16.14;81.95
77153;BME280;66124;51.146;17.072;2023-07-13T05:43:44;99889.91;;;16.20;81.95
77153;BME280;66124;51.146;17.072;2023-07-13T05:46:13;99906.08;;;16.33;81.77
77153;BME280;66124;51.146;17.072;2023-07-13T05:48:43;99916.58;;;16.41;81.85
77153;BME280;66124;51.146;17.072;2023-07-13T05:51:13;99921.71;;;16.45;81.43
77153;BME280;66124;51.146;17.072;2023-07-13T05:53:42;99920.19;;;16.50;81.52
77153;BME280;66124;51.146;17.072;2023-07-13T05:56:12;99926.13;;;16.54;81.57
77153;BME280;66124;51.146;17.072;2023-07-13T05:58:41;99927.59;;;16.59;81.38
77153;BME280;66124;51.146;17.072;2023-07-13T06:01:13;99916.46;;;16.63;81.18
77153;BME280;66124;51.146;17.072;2023-07-13T06:03:42;99896.83;;;16.67;81.37
77153;BME280;66124;51.146;17.072;2023-07-13T06:06:12;99873.96;;;16.73;81.22
77153;BME280;66124;51.146;17.072;2023-07-13T06:08:40;99870.78;;;16.81;81.22
77153;BME280;66124;51.146;17.072;2023-07-13T06:11:10;99900.11;;;16.89;81.21
77153;BME280;66124;51.146;17.072;2023-07-13T06:20:14;99908.89;;;17.27;81.82
77153;BME280;66124;51.146;17.072;2023-07-13T06:22:44;99920.93;;;17.38;81.92
77153;BME280;66124;51.146;17.072;2023-07-13T06:25:13;99926.18;;;17.48;81.77
77153;BME280;66124;51.146;17.072;2023-07-13T06:27:43;99933.52;;;17.62;82.01
77153;BME280;66124;51.146;17.072;2023-07-13T06:30:14;99931.08;;;17.72;81.75
77153;BME280;66124;51.146;17.072;2023-07-13T06:32:43;99929.20;;;17.85;81.87
77153;BME280;66124;51.146;17.072;2023-07-13T06:35:12;99929.36;;;17.98;81.73
77153;BME280;66124;51.146;17.072;2023-07-13T06:37:42;99937.60;;;18.11;81.65
77153;BME280;66124;51.146;17.072;2023-07-13T06:40:12;99944.39;;;18.25;81.78
77153;BME280;66124;51.146;17.072;2023-07-13T06:42:41;99948.50;;;18.40;81.95
77153;BME280;66124;51.146;17.072;2023-07-13T06:45:11;99954.64;;;18.52;81.94
77153;BME280;66124;51.146;17.072;2023-07-13T06:47:40;99966.47;;;18.58;81.34
77153;BME280;66124;51.146;17.072;2023-07-13T06:50:11;99979.50;;;18.53;80.44
77153;BME280;66124;51.146;17.072;2023-07-13T06:52:40;99989.98;;;18.40;80.06
77153;BME280;66124;51.146;17.072;2023-07-13T06:55:10;100002.36;;;18.26;80.22
77153;BME280;66124;51.146;17.072;2023-07-13T06:57:40;100018.59;;;18.17;80.19
77153;BME280;66124;51.146;17.072;2023-07-13T07:00:11;100026.40;;;18.05;80.14
77153;BME280;66124;51.146;17.072;2023-07-13T07:02:41;100030.77;;;17.94;80.12
77153;BME280;66124;51.146;17.072;2023-07-13T07:05:10;100037.06;;;17.87;80.24
77153;BME280;66124;51.146;17.072;2023-07-13T07:07:40;100049.72;;;17.81;80.34
77153;BME280;66124;51.146;17.072;2023-07-13T07:10:10;100058.73;;;17.75;80.49
77153;BME280;66124;51.146;17.072;2023-07-13T07:12:39;100066.94;;;17.70;80.57
77153;BME280;66124;51.146;17.072;2023-07-13T07:15:10;100070.44;;;17.63;80.94
77153;BME280;66124;51.146;17.072;2023-07-13T07:17:39;100072.25;;;17.55;80.97
77153;BME280;66124;51.146;17.072;2023-07-13T07:20:11;100079.35;;;17.47;81.21
77153;BME280;66124;51.146;17.072;2023-07-13T07:22:40;100083.84;;;17.42;81.25
77153;BME280;66124;51.146;17.072;2023-07-13T07:25:10;100087.23;;;17.37;81.35
77153;BME280;66124;51.146;17.072;2023-07-13T07:27:40;100097.48;;;17.34;81.45
77153;BME280;66124;51.146;17.072;2023-07-13T07:30:11;100088.58;;;17.32;81.45
77153;BME280;66124;51.146;17.072;2023-07-13T07:32:39;100085.94;;;17.30;81.56
77153;BME280;66124;51.146;17.072;2023-07-13T07:40:58;100010.83;;;17.43;81.77
77153;BME280;66124;51.146;17.072;2023-07-13T07:43:27;99990.95;;;17.49;82.16
77153;BME280;66124;51.146;17.072;2023-07-13T07:45:56;99971.88;;;17.59;82.15
77153;BME280;66124;51.146;17.072;2023-07-13T07:48:26;99932.06;;;17.66;81.95
77153;BME280;66124;51.146;17.072;2023-07-13T07:50:55;99895.30;;;17.73;82.02
77153;BME280;66124;51.146;17.072;2023-07-13T07:53:26;99888.00;;;17.83;81.95
77153;BME280;66124;51.146;17.072;2023-07-13T07:55:55;99894.98;;;17.93;81.88
77153;BME280;66124;51.146;17.072;2023-07-13T07:58:25;99899.11;;;18.00;81.76
77153;BME280;66124;51.146;17.072;2023-07-13T08:00:54;99906.64;;;18.14;81.74
77153;BME280;66124;51.146;17.072;2023-07-13T08:03:30;99923.40;;;18.30;82.00
77153;BME280;66124;51.146;17.072;2023-07-13T08:06:00;99940.20;;;18.46;81.92
77153;BME280;66124;51.146;17.072;2023-07-13T08:08:29;99956.02;;;18.60;81.25
77153;BME280;66124;51.146;17.072;2023-07-13T08:11:01;99955.52;;;18.64;81.10
77153;BME280;66124;51.146;17.072;2023-07-13T08:13:31;99982.35;;;18.87;80.96
77153;BME280;66124;51.146;17.072;2023-07-13T08:16:03;99991.57;;;19.00;80.85
77153;BME280;66124;51.146;17.072;2023-07-13T08:18:33;99999.44;;;19.12;80.70
77153;BME280;66124;51.146;17.072;2023-07-13T08:21:05;100006.93;;;19.24;80.36
77153;BME280;66124;51.146;17.072;2023-07-13T08:23:35;100007.27;;;19.37;80.04
77153;BME280;66124;51.146;17.072;2023-07-13T08:26:04;100010.33;;;19.49;79.84
77153;BME280;66124;51.146;17.072;2023-07-13T08:28:34;100021.79;;;19.63;79.56
77153;BME280;66124;51.146;17.072;2023-07-13T08:31:04;100022.09;;;19.75;79.24
77153;BME280;66124;51.146;17.072;2023-07-13T08:33:35;100028.15;;;19.82;78.59
77153;BME280;66124;51.146;17.072;2023-07-13T08:36:06;100034.43;;;19.84;78.19
77153;BME280;66124;51.146;17.072;2023-07-13T08:38:36;100035.34;;;19.81;77.56
77153;BME280;66124;51.146;17.072;2023-07-13T08:41:13;100038.85;;;19.79;77.60
77153;BME280;66124;51.146;17.072;2023-07-13T08:43:41;100044.86;;;19.74;77.56
77153;BME280;66124;51.146;17.072;2023-07-13T08:46:15;100052.42;;;19.71;77.80
77153;BME280;66124;51.146;17.072;2023-07-13T08:48:50;100056.35;;;19.76;77.62
77153;BME280;66124;51.146;17.072;2023-07-13T08:51:26;100057.88;;;19.76;77.32
77153;BME280;66124;51.146;17.072;2023-07-13T09:00:34;100066.14;;;19.86;76.55
77153;BME280;66124;51.146;17.072;2023-07-13T09:03:07;100065.59;;;19.94;76.52
77153;BME280;66124;51.146;17.072;2023-07-13T09:05:42;100070.44;;;19.99;76.09
77153;BME280;66124;51.146;17.072;2023-07-13T09:08:21;100074.84;;;20.03;75.79
77153;BME280;66124;51.146;17.072;2023-07-13T09:10:59;100068.58;;;20.08;75.45
77153;BME280;66124;51.146;17.072;2023-07-13T09:13:37;100070.08;;;20.18;75.26
77153;BME280;66124;51.146;17.072;2023-07-13T09:16:08;100075.31;;;20.29;75.04
77153;BME280;66124;51.146;17.072;2023-07-13T09:18:39;100077.58;;;20.38;74.57
77153;BME280;66124;51.146;17.072;2023-07-13T09:26:20;100071.08;;;20.73;73.11
77153;BME280;66124;51.146;17.072;2023-07-13T09:28:49;100070.05;;;20.86;72.79
77153;BME280;66124;51.146;17.072;2023-07-13T09:31:26;100070.82;;;20.92;71.63
77153;BME280;66124;51.146;17.072;2023-07-13T09:33:57;100074.17;;;20.99;71.68
77153;BME280;66124;51.146;17.072;2023-07-13T09:36:30;100061.27;;;20.98;71.54
77153;BME280;66124;51.146;17.072;2023-07-13T09:39:04;100068.71;;;21.15;71.21
77153;BME280;66124;51.146;17.072;2023-07-13T09:41:40;100064.41;;;21.24;71.01
77153;BME280;66124;51.146;17.072;2023-07-13T09:44:12;100060.94;;;21.36;70.85
77153;BME280;66124;51.146;17.072;2023-07-13T09:46:51;100061.55;;;21.49;70.70
77153;BME280;66124;51.146;17.072;2023-07-13T09:49:25;100063.10;;;21.67;70.86
77153;BME280;66124;51.146;17.072;2023-07-13T09:52:01;100062.77;;;21.82;70.48
77153;BME280;66124;51.146;17.072;2023-07-13T09:54:35;100072.07;;;21.90;69.46
77153;BME280;66124;51.146;17.072;2023-07-13T09:57:14;100071.38;;;21.90;69.03
77153;BME280;66124;51.146;17.072;2023-07-13T09:59:45;100069.14;;;21.93;68.65
77153;BME280;66124;51.146;17.072;2023-07-13T10:02:30;100071.35;;;21.94;68.07
77153;BME280;66124;51.146;17.072;2023-07-13T10:05:02;100060.02;;;21.94;67.86
77153;BME280;66124;51.146;17.072;2023-07-13T10:07:37;100065.88;;;22.10;67.85
77153;BME280;66124;51.146;17.072;2023-07-13T10:10:16;100065.23;;;22.27;67.61
77153;BME280;66124;51.146;17.072;2023-07-13T10:12:46;100067.30;;;22.40;66.72
77153;BME280;66124;51.146;17.072;2023-07-13T10:15:18;100069.16;;;22.55;66.54
77153;BME280;66124;51.146;17.072;2023-07-13T10:17:49;100064.23;;;22.77;66.36
77153;BME280;66124;51.146;17.072;2023-07-13T10:20:19;100059.40;;;22.94;65.32
77153;BME280;66124;51.146;17.072;2023-07-13T10:22:53;100063.53;;;23.06;64.52
77153;BME280;66124;51.146;17.072;2023-07-13T10:25:26;100070.77;;;23.15;64.51
77153;BME280;66124;51.146;17.072;2023-07-13T10:28:02;100078.66;;;23.23;63.63
77153;BME280;66124;51.146;17.072;2023-07-13T10:30:38;100080.48;;;23.36;63.38
77153;BME280;66124;51.146;17.072;2023-07-13T10:33:12;100087.62;;;23.50;62.36
77153;BME280;66124;51.146;17.072;2023-07-13T10:35:44;100082.02;;;23.65;62.16
77153;BME280;66124;51.146;17.072;2023-07-13T10:38:13;100076.61;;;23.87;61.37
77153;BME280;66124;51.146;17.072;2023-07-13T10:49:50;100081.23;;;24.30;58.86
77153;BME280;66124;51.146;17.072;2023-07-13T10:52:42;100082.66;;;24.34;58.85
77153;BME280;66124;51.146;17.072;2023-07-13T10:55:32;100080.41;;;24.52;58.91
77153;BME280;66124;51.146;17.072;2023-07-13T10:58:10;100075.73;;;24.68;58.25
77153;BME280;66124;51.146;17.072;2023-07-13T11:00:49;100080.13;;;24.74;58.10
77153;BME280;66124;51.146;17.072;2023-07-13T11:03:20;100082.02;;;24.80;57.92
77153;BME280;66124;51.146;17.072;2023-07-13T11:06:03;100081.59;;;24.94;57.61
77153;BME280;66124;51.146;17.072;2023-07-13T11:08:37;100082.85;;;25.01;55.96
77153;BME280;66124;51.146;17.072;2023-07-13T11:11:35;100072.41;;;24.96;55.45
77153;BME280;66124;51.146;17.072;2023-07-13T11:14:08;100075.90;;;24.97;55.11
77153;BME280;66124;51.146;17.072;2023-07-13T11:16:54;100080.81;;;24.97;54.51
77153;BME280;66124;51.146;17.072;2023-07-13T11:19:38;100087.34;;;24.98;53.98
77153;BME280;66124;51.146;17.072;2023-07-13T11:22:15;100086.95;;;25.00;53.95
77153;BME280;66124;51.146;17.072;2023-07-13T11:25:00;100088.23;;;25.03;54.42
77153;BME280;66124;51.146;17.072;2023-07-13T11:27:42;100085.70;;;25.15;54.30
77153;BME280;66124;51.146;17.072;2023-07-13T11:30:35;100085.34;;;25.21;53.54
77153;BME280;66124;51.146;17.072;2023-07-13T11:33:13;100090.22;;;25.17;53.83
77153;BME280;66124;51.146;17.072;2023-07-13T11:35:49;100085.53;;;25.13;53.76
77153;BME280;66124;51.146;17.072;2023-07-13T11:38:22;100080.96;;;25.11;54.22
77153;BME280;66124;51.146;17.072;2023-07-13T11:40:54;100081.75;;;25.14;54.56
77153;BME280;66124;51.146;17.072;2023-07-13T11:43:25;100082.27;;;25.22;54.65
77153;BME280;66124;51.146;17.072;2023-07-13T11:45:54;100081.97;;;25.32;54.69
77153;BME280;66124;51.146;17.072;2023-07-13T11:48:27;100079.48;;;25.46;54.65
77153;BME280;66124;51.146;17.072;2023-07-13T11:51:00;100079.88;;;25.60;54.44
77153;BME280;66124;51.146;17.072;2023-07-13T11:53:37;100076.10;;;25.74;54.32
77153;BME280;66124;51.146;17.072;2023-07-13T11:56:08;100078.48;;;25.80;53.41
77153;BME280;66124;51.146;17.072;2023-07-13T11:58:38;100082.50;;;25.77;53.29
77153;BME280;66124;51.146;17.072;2023-07-13T12:01:06;100087.25;;;25.70;52.97
77153;BME280;66124;51.146;17.072;2023-07-13T12:10:21;100090.88;;;25.62;52.73
77153;BME280;66124;51.146;17.072;2023-07-13T12:12:54;100097.16;;;25.51;51.66
77153;BME280;66124;51.146;17.072;2023-07-13T12:15:28;100093.88;;;25.44;51.75
77153;BME280;66124;51.146;17.072;2023-07-13T12:18:00;100098.43;;;25.48;51.40
77153;BME280;66124;51.146;17.072;2023-07-13T12:20:35;100099.32;;;25.52;51.20
77153;BME280;66124;51.146;17.072;2023-07-13T12:23:20;100097.09;;;25.54;51.07
77153;BME280;66124;51.146;17.072;2023-07-13T12:25:51;100095.34;;;25.67;50.02
77153;BME280;66124;51.146;17.072;2023-07-13T12:28:34;100087.88;;;25.81;50.34
77153;BME280;66124;51.146;17.072;2023-07-13T12:31:05;100089.17;;;26.37;49.89
77153;BME280;66124;51.146;17.072;2023-07-13T12:33:35;100085.48;;;26.86;48.71
77153;BME280;66124;51.146;17.072;2023-07-13T12:36:11;100078.59;;;27.33;47.41
77153;BME280;66124;51.146;17.072;2023-07-13T12:38:44;100068.80;;;27.72;47.02
77153;BME280;66124;51.146;17.072;2023-07-13T12:41:16;100075.30;;;28.21;46.38
77153;BME280;66124;51.146;17.072;2023-07-13T12:43:46;100072.36;;;28.63;45.44
77153;BME280;66124;51.146;17.072;2023-07-13T12:46:20;100073.55;;;28.89;44.93
77153;BME280;66124;51.146;17.072;2023-07-13T12:48:54;100071.65;;;29.00;44.28
77153;BME280;66124;51.146;17.072;2023-07-13T12:51:26;100072.65;;;28.99;43.44
77153;BME280;66124;51.146;17.072;2023-07-13T12:54:05;100071.27;;;29.00;43.05
77153;BME280;66124;51.146;17.072;2023-07-13T12:56:35;100067.16;;;29.11;42.56
77153;BME280;66124;51.146;17.072;2023-07-13T12:59:05;100069.38;;;29.46;42.43
77153;BME280;66124;51.146;17.072;2023-07-13T13:01:36;100066.45;;;30.06;41.46
77153;BME280;66124;51.146;17.072;2023-07-13T13:04:06;100065.95;;;30.48;40.62
77153;BME280;66124;51.146;17.072;2023-07-13T13:06:38;100063.56;;;30.69;39.77
77153;BME280;66124;51.146;17.072;2023-07-13T13:09:13;100055.06;;;31.01;39.60
77153;BME280;66124;51.146;17.072;2023-07-13T13:11:43;100052.45;;;31.57;38.35
77153;BME280;66124;51.146;17.072;2023-07-13T13:14:13;100054.98;;;31.91;37.03
77153;BME280;66124;51.146;17.072;2023-07-13T13:16:48;100050.45;;;32.12;36.76
77153;BME280;66124;51.146;17.072;2023-07-13T13:19:19;100047.55;;;32.18;36.60
77153;BME280;66124;51.146;17.072;2023-07-13T13:21:48;100049.91;;;32.25;35.78
77153;BME280;66124;51.146;17.072;2023-07-13T13:29:47;100039.10;;;33.05;34.45
77153;BME280;66124;51.146;17.072;2023-07-13T13:32:17;100047.19;;;33.60;33.97
77153;BME280;66124;51.146;17.072;2023-07-13T13:34:46;100046.21;;;34.16;33.01
77153;BME280;66124;51.146;17.072;2023-07-13T13:37:20;100050.55;;;34.46;32.24
77153;BME280;66124;51.146;17.072;2023-07-13T13:39:50;100046.27;;;34.53;31.93
77153;BME280;66124;51.146;17.072;2023-07-13T13:42:20;100046.05;;;34.66;31.96
77153;BME280;66124;51.146;17.072;2023-07-13T13:44:49;100047.18;;;35.12;31.78
77153;BME280;66124;51.146;17.072;2023-07-13T13:47:29;100044.91;;;35.77;31.30
77153;BME280;66124;51.146;17.072;2023-07-13T13:50:00;100043.09;;;36.48;30.69
77153;BME280;66124;51.146;17.072;2023-07-13T13:52:29;100040.83;;;36.94;29.92
77153;BME280;66124;51.146;17.072;2023-07-13T13:54:59;100035.40;;;37.12;28.66
77153;BME280;66124;51.146;17.072;2023-07-13T13:57:28;100043.31;;;36.99;28.11
77153;BME280;66124;51.146;17.072;2023-07-13T13:59:58;100033.48;;;37.07;27.90
77153;BME280;66124;51.146;17.072;2023-07-13T14:02:28;100029.92;;;37.36;27.59
77153;BME280;66124;51.146;17.072;2023-07-13T14:05:01;100027.27;;;37.67;26.88
77153;BME280;66124;51.146;17.072;2023-07-13T14:07:31;100020.34;;;37.88;26.08
77153;BME280;66124;51.146;17.072;2023-07-13T14:10:01;100015.83;;;38.08;25.37
77153;BME280;66124;51.146;17.072;2023-07-13T14:12:30;100012.14;;;38.32;24.83
77153;BME280;66124;51.146;17.072;2023-07-13T14:15:00;100006.99;;;38.29;24.39